createdAt,value
2023-03-23T15:59:19.249Z,91.90
2023-03-23T16:01:49.836Z,92.10
2023-03-23T16:04:20.196Z,92.30
2023-03-23T16:06:50.069Z,92.10
2023-03-23T16:09:24.269Z,91.90
2023-03-23T16:11:53.558Z,92.00
2023-03-23T16:14:23.709Z,92.20
2023-03-23T16:16:54.476Z,92.50
2023-03-23T16:19:25.642Z,92.50
2023-03-23T16:21:54.534Z,92.50
2023-03-23T16:24:22.787Z,92.60
2023-03-23T16:26:49.807Z,92.40
2023-03-23T16:29:34.384Z,92.50
2023-03-23T16:32:09.223Z,92.50
2023-03-23T16:34:46.353Z,92.60
2023-03-23T16:37:13.933Z,92.60
2023-03-23T16:39:42.538Z,92.80
2023-03-23T16:42:12.213Z,93.00
2023-03-23T16:44:49.047Z,93.30
2023-03-23T16:47:23.581Z,93.10
2023-03-23T16:49:55.762Z,93.40
2023-03-23T16:52:30.513Z,93.50
2023-03-23T16:55:06.482Z,93.60
2023-03-23T16:57:37.569Z,93.70
2023-03-23T17:00:09.853Z,93.80
2023-03-23T17:02:42.448Z,93.90
2023-03-23T17:05:15.215Z,94.00
2023-03-23T17:07:46.066Z,94.10
2023-03-23T17:10:16.551Z,94.30
2023-03-23T17:12:48.326Z,94.40
2023-03-23T17:15:24.443Z,94.50
2023-03-23T17:17:55.430Z,94.70
2023-03-23T17:20:25.332Z,94.80
2023-03-23T17:22:54.927Z,94.90
2023-03-23T17:25:22.562Z,94.90
2023-03-23T17:28:05.472Z,95.00
2023-03-23T17:30:36.012Z,95.00
2023-03-23T17:33:13.662Z,95.10
2023-03-23T17:35:43.997Z,95.20
2023-03-23T17:38:11.591Z,95.30
2023-03-23T17:40:41.362Z,95.50
2023-03-23T17:43:10.247Z,95.60
2023-03-23T17:45:39.926Z,95.70
2023-03-23T17:48:08.404Z,95.70
2023-03-23T17:50:38.068Z,96.10
2023-03-23T17:53:07.680Z,95.80
2023-03-23T17:55:45.505Z,96.00
2023-03-23T17:58:16.606Z,96.10
2023-03-23T18:00:45.494Z,96.20
2023-03-23T18:03:17.299Z,96.20
2023-03-23T18:05:45.164Z,96.30
2023-03-23T18:08:14.600Z,96.40
2023-03-23T18:10:46.374Z,96.40
2023-03-23T18:13:15.056Z,96.50
2023-03-23T18:15:48.389Z,96.40
2023-03-23T18:18:16.952Z,96.40
2023-03-23T18:20:46.232Z,96.50
2023-03-23T18:23:21.920Z,96.70
2023-03-23T18:25:54.101Z,96.80
2023-03-23T18:28:23.624Z,97.10
2023-03-23T18:30:56.229Z,97.30
2023-03-23T18:36:03.997Z,97.70
2023-03-23T18:38:41.663Z,97.80
2023-03-23T18:41:13.136Z,97.90
2023-03-23T18:43:42.094Z,97.90
2023-03-23T18:46:13.196Z,97.80
2023-03-23T18:48:43.984Z,97.90
2023-03-23T18:51:13.381Z,98.00
2023-03-23T18:53:40.865Z,98.30
2023-03-23T18:56:20.662Z,98.40
2023-03-23T18:58:59.221Z,95.60
2023-03-23T19:01:35.991Z,93.20
2023-03-23T19:04:06.766Z,94.60
2023-03-23T19:06:38.561Z,97.80
2023-03-23T19:09:09.206Z,99.90
2023-03-23T19:11:37.688Z,99.70
2023-03-23T19:14:06.283Z,99.90
2023-03-23T19:16:44.105Z,99.90
2023-03-23T19:21:46.944Z,99.90
2023-03-23T19:24:16.766Z,99.90
2023-03-23T19:26:49.725Z,99.90
2023-03-23T19:29:25.943Z,99.90
2023-03-23T19:31:57.806Z,99.90
2023-03-23T19:34:28.958Z,99.90
2023-03-23T19:37:05.305Z,99.90
2023-03-23T19:39:37.205Z,99.90
2023-03-23T19:42:06.684Z,99.90
2023-03-23T19:44:43.253Z,99.90
2023-03-23T19:47:13.515Z,99.90
2023-03-23T19:49:51.560Z,99.90
2023-03-23T19:52:23.372Z,99.90
2023-03-23T19:54:55.039Z,99.90
2023-03-23T19:57:25.575Z,99.90
2023-03-23T19:59:55.916Z,99.90
2023-03-23T20:02:26.125Z,99.90
2023-03-23T20:04:57.201Z,99.90
2023-03-23T20:07:28.694Z,99.90
2023-03-23T20:10:06.243Z,99.90
2023-03-23T20:12:37.373Z,99.90
2023-03-23T20:15:09.205Z,99.90
2023-03-23T20:17:38.025Z,99.90
2023-03-23T20:20:10.463Z,99.90
2023-03-23T20:22:38.983Z,99.90
2023-03-23T20:25:15.683Z,99.90
2023-03-23T20:27:44.987Z,99.90
2023-03-23T20:30:14.568Z,99.90
2023-03-23T20:32:50.252Z,99.90
2023-03-23T20:35:26.419Z,99.90
2023-03-23T20:38:02.298Z,99.90
2023-03-23T20:40:30.738Z,99.90
2023-03-23T20:43:04.437Z,99.90
2023-03-23T20:45:34.139Z,99.90
2023-03-23T20:48:14.704Z,99.90
2023-03-23T20:50:45.705Z,99.90
2023-03-23T20:53:14.569Z,99.90
2023-03-23T20:55:41.626Z,99.90
2023-03-23T20:58:12.085Z,99.90
2023-03-23T21:00:49.680Z,99.90
2023-03-23T21:03:26.952Z,99.90
2023-03-23T21:05:57.589Z,99.90
2023-03-23T21:08:26.885Z,99.90
2023-03-23T21:10:58.086Z,99.90
2023-03-23T21:13:26.526Z,99.90
2023-03-23T21:15:55.354Z,99.90
2023-03-23T21:18:25.639Z,99.90
2023-03-23T21:20:54.688Z,99.90
2023-03-23T21:23:30.218Z,99.90
2023-03-23T21:26:03.893Z,99.90
2023-03-23T21:28:31.164Z,99.90
2023-03-23T21:31:05.109Z,99.90
2023-03-23T21:33:32.562Z,99.90
2023-03-23T21:36:03.315Z,99.90
2023-03-23T21:38:32.834Z,99.90
2023-03-23T21:41:11.630Z,99.90
2023-03-23T21:43:40.967Z,99.90
2023-03-23T21:46:18.056Z,99.90
2023-03-23T21:48:54.038Z,99.90
2023-03-23T21:51:26.442Z,99.90
2023-03-23T21:53:59.634Z,99.90
2023-03-23T21:56:32.271Z,99.90
2023-03-23T21:59:11.297Z,99.90
2023-03-23T22:01:41.192Z,99.90
2023-03-23T22:04:10.162Z,99.90
2023-03-23T22:06:38.712Z,99.90
2023-03-23T22:09:07.694Z,99.90
2023-03-23T22:11:36.753Z,99.90
2023-03-23T22:14:22.256Z,99.50
2023-03-23T22:16:52.729Z,95.30
2023-03-23T22:19:23.840Z,97.40
2023-03-23T22:22:01.356Z,99.30
2023-03-23T22:24:28.745Z,99.90
2023-03-23T22:26:57.434Z,99.90
2023-03-23T22:29:26.283Z,99.90
2023-03-23T22:31:57.061Z,99.90
2023-03-23T22:34:28.799Z,99.90
2023-03-23T22:36:56.967Z,99.90
2023-03-23T22:39:34.310Z,99.90
2023-03-23T22:42:06.777Z,99.90
2023-03-23T22:44:36.804Z,99.90
2023-03-23T22:47:14.138Z,99.90
2023-03-23T22:49:45.567Z,99.90
2023-03-23T22:52:15.226Z,99.90
2023-03-23T22:54:45.298Z,99.90
2023-03-23T22:57:12.617Z,99.90
2023-03-23T22:59:48.443Z,99.90
2023-03-23T23:02:18.006Z,99.90
2023-03-23T23:04:46.366Z,99.90
2023-03-23T23:07:20.568Z,99.90
2023-03-23T23:09:49.295Z,99.90
2023-03-23T23:12:21.285Z,99.90
2023-03-23T23:14:50.326Z,99.90
2023-03-23T23:17:22.610Z,99.90
2023-03-23T23:19:59.490Z,99.90
2023-03-23T23:22:35.869Z,99.90
2023-03-23T23:25:04.601Z,99.90
2023-03-23T23:27:41.626Z,99.90
2023-03-23T23:30:11.106Z,99.90
2023-03-23T23:32:47.875Z,99.90
2023-03-23T23:35:18.571Z,99.90
2023-03-23T23:37:48.101Z,99.90
2023-03-23T23:40:17.968Z,99.90
2023-03-23T23:42:53.646Z,99.90
2023-03-23T23:45:22.893Z,99.90
2023-03-23T23:47:50.498Z,99.90
2023-03-23T23:50:19.505Z,99.90
2023-03-23T23:52:51.240Z,99.90
2023-03-23T23:55:22.104Z,99.90
2023-03-23T23:57:59.858Z,99.90
